createdAt,value
2022-09-20T00:01:36.818Z,95832.22
2022-09-20T00:04:04.425Z,95827.94
2022-09-20T00:06:31.995Z,95831.91
2022-09-20T00:09:00.558Z,95832.38
2022-09-20T00:11:28.757Z,95819.00
2022-09-20T00:13:56.757Z,95823.38
2022-09-20T00:16:33.520Z,95824.72
2022-09-20T00:24:05.158Z,95822.00
2022-09-20T00:26:31.516Z,95807.63
2022-09-20T00:32:41.330Z,95810.22
2022-09-20T00:35:09.924Z,95811.84
2022-09-20T00:37:38.209Z,95814.78
2022-09-20T00:43:55.715Z,95807.28
2022-09-20T00:53:41.819Z,95810.72
2022-09-20T00:56:13.119Z,95812.25
2022-09-20T00:58:44.209Z,95812.47
2022-09-20T01:01:11.218Z,95809.16
2022-09-20T01:03:39.553Z,95822.91
2022-09-20T01:06:13.298Z,95814.03
2022-09-20T01:16:47.352Z,95814.59
2022-09-20T01:19:19.149Z,95813.97
2022-09-20T01:21:47.021Z,95804.75
2022-09-20T01:24:22.002Z,95815.81
2022-09-20T01:27:13.310Z,95812.88
2022-09-20T01:30:03.241Z,95808.41
2022-09-20T01:32:42.809Z,95800.03
2022-09-20T01:40:19.327Z,95793.84
2022-09-20T01:45:50.093Z,95800.84
2022-09-20T01:48:26.937Z,95802.22
2022-09-20T01:51:27.862Z,95789.47
2022-09-20T01:54:20.301Z,95786.88
2022-09-20T02:11:37.509Z,95783.72
2022-09-20T02:14:16.736Z,95784.03
2022-09-20T02:16:52.092Z,95774.44
2022-09-20T02:19:33.959Z,95778.09
2022-09-20T02:22:22.194Z,95783.78
2022-09-20T02:24:58.318Z,95775.88
2022-09-20T02:27:37.088Z,95775.53
2022-09-20T02:30:16.085Z,95779.91
2022-09-20T02:33:09.824Z,95786.06
2022-09-20T02:35:49.712Z,95781.06
2022-09-20T02:38:27.081Z,95785.94
2022-09-20T02:41:14.265Z,95779.91
2022-09-20T02:43:53.057Z,95780.94
2022-09-20T02:46:28.656Z,95780.69
2022-09-20T02:49:07.443Z,95784.94
2022-09-20T02:54:28.959Z,95786.97
2022-09-20T02:57:03.580Z,95792.78
2022-09-20T02:59:41.452Z,95787.94
2022-09-20T03:02:23.719Z,95791.13
2022-09-20T03:05:04.742Z,95791.50
2022-09-20T03:07:38.308Z,95792.22
2022-09-20T03:14:14.366Z,95785.94
2022-09-20T03:16:57.431Z,95787.69
2022-09-20T03:19:36.847Z,95791.56
2022-09-20T03:22:15.857Z,95785.88
2022-09-20T03:24:54.689Z,95794.84
2022-09-20T03:27:31.949Z,95782.78
2022-09-20T03:30:18.128Z,95787.09
2022-09-20T03:32:59.970Z,95790.41
2022-09-20T03:35:41.183Z,95790.28
2022-09-20T03:38:33.705Z,95788.53
2022-09-20T03:41:26.097Z,95789.56
2022-09-20T03:44:10.007Z,95795.47
2022-09-20T03:46:45.248Z,95793.34
2022-09-20T03:49:52.715Z,95795.34
2022-09-20T03:52:34.807Z,95801.06
2022-09-20T03:55:40.125Z,95794.22
2022-09-20T03:58:23.289Z,95790.19
2022-09-20T04:01:04.763Z,95794.97
2022-09-20T04:03:48.239Z,95786.00
2022-09-20T04:06:41.671Z,95788.88
2022-09-20T04:09:41.610Z,95793.72
2022-09-20T04:12:24.884Z,95802.03
2022-09-20T04:15:04.417Z,95801.72
2022-09-20T04:17:45.537Z,95812.16
2022-09-20T04:20:21.799Z,95806.13
2022-09-20T04:22:56.098Z,95807.56
2022-09-20T04:25:51.229Z,95806.47
2022-09-20T04:28:29.120Z,95805.66
2022-09-20T04:31:20.829Z,95806.25
2022-09-20T04:36:39.148Z,95808.53
2022-09-20T04:39:23.099Z,95810.41
2022-09-20T04:42:45.058Z,95809.94
2022-09-20T04:45:58.993Z,95808.25
2022-09-20T04:48:57.503Z,95815.22
2022-09-20T04:51:54.366Z,95812.50
2022-09-20T04:54:55.032Z,95818.84
2022-09-20T04:57:57.859Z,95811.97
2022-09-20T05:00:33.592Z,95810.84
2022-09-20T05:03:32.578Z,95818.59
2022-09-20T05:06:54.057Z,95812.94
2022-09-20T05:09:57.349Z,95816.78
2022-09-20T05:12:58.972Z,95815.03
2022-09-20T05:15:39.497Z,95815.97
2022-09-20T05:18:44.018Z,95828.09
2022-09-20T05:21:35.415Z,95816.75
2022-09-20T05:24:18.506Z,95819.97
2022-09-20T05:27:02.463Z,95833.78
2022-09-20T05:29:35.127Z,95829.75
2022-09-20T05:32:10.523Z,95832.94
2022-09-20T05:34:45.590Z,95833.34
2022-09-20T05:37:25.354Z,95831.84
2022-09-20T05:40:00.665Z,95839.59
2022-09-20T05:42:40.751Z,95833.50
2022-09-20T05:45:26.414Z,95839.19
2022-09-20T05:48:00.546Z,95836.78
2022-09-20T05:50:44.709Z,95838.84
2022-09-20T05:53:43.222Z,95838.13
2022-09-20T05:56:19.598Z,95846.41
2022-09-20T05:59:14.104Z,95849.31
2022-09-20T06:02:00.982Z,95860.22
2022-09-20T06:04:35.774Z,95857.91
2022-09-20T06:07:10.102Z,95865.19
2022-09-20T06:09:51.555Z,95853.69
2022-09-20T06:12:37.481Z,95864.88
2022-09-20T06:15:18.341Z,95859.69
2022-09-20T06:17:56.455Z,95856.28
2022-09-20T06:20:30.135Z,95865.13
2022-09-20T06:23:01.936Z,95870.69
2022-09-20T06:25:35.481Z,95867.34
2022-09-20T06:28:09.603Z,95861.97
2022-09-20T06:30:43.689Z,95861.13
2022-09-20T06:33:17.605Z,95873.47
2022-09-20T06:35:50.494Z,95872.78
2022-09-20T06:38:51.923Z,95878.91
2022-09-20T06:41:30.500Z,95878.47
2022-09-20T06:43:59.625Z,95877.34
2022-09-20T06:46:29.844Z,95878.78
2022-09-20T06:48:58.293Z,95876.84
2022-09-20T06:51:28.775Z,95870.41
2022-09-20T06:53:58.012Z,95885.06
2022-09-20T06:56:27.742Z,95883.41
2022-09-20T06:58:55.565Z,95883.25
2022-09-20T07:01:30.074Z,95888.94
2022-09-20T07:04:02.916Z,95886.13
2022-09-20T07:06:30.926Z,95879.56
2022-09-20T07:08:58.544Z,95886.31
2022-09-20T07:11:26.738Z,95885.09
2022-09-20T07:13:56.224Z,95882.34
2022-09-20T07:16:23.923Z,95885.16
2022-09-20T07:18:53.010Z,95886.38
2022-09-20T07:21:22.749Z,95891.50
2022-09-20T07:23:51.303Z,95896.25
2022-09-20T07:26:21.439Z,95890.56
2022-09-20T07:28:49.846Z,95889.75
2022-09-20T07:31:18.279Z,95895.84
2022-09-20T07:33:46.051Z,95896.41
2022-09-20T07:36:14.514Z,95882.56
2022-09-20T07:38:44.157Z,95888.06
2022-09-20T07:41:11.728Z,95906.97
2022-09-20T07:43:40.056Z,95901.09
2022-09-20T07:46:07.728Z,95904.69
2022-09-20T07:48:37.065Z,95908.34
2022-09-20T07:51:08.810Z,95909.28
2022-09-20T07:53:37.577Z,95912.94
2022-09-20T07:56:08.529Z,95911.38
2022-09-20T07:58:37.252Z,95910.97
2022-09-20T08:01:06.847Z,95910.88
2022-09-20T08:03:35.679Z,95911.19
2022-09-20T08:06:04.970Z,95919.38
2022-09-20T08:08:33.703Z,95908.28
2022-09-20T08:11:07.227Z,95906.97
2022-09-20T08:16:25.588Z,95910.00
2022-09-20T08:18:55.653Z,95913.06
2022-09-20T08:21:23.581Z,95911.72
2022-09-20T08:23:51.911Z,95915.53
2022-09-20T08:26:23.449Z,95911.88
2022-09-20T08:28:53.653Z,95915.25
2022-09-20T08:31:23.817Z,95906.84
2022-09-20T08:33:52.726Z,95913.25
2022-09-20T08:36:22.750Z,95917.09
2022-09-20T08:41:43.739Z,95920.13
2022-09-20T08:44:18.462Z,95922.72
2022-09-20T08:46:49.409Z,95922.78
2022-09-20T08:49:25.975Z,95914.53
2022-09-20T08:51:54.757Z,95913.22
2022-09-20T08:54:24.137Z,95920.16
2022-09-20T08:56:53.969Z,95909.31
2022-09-20T08:59:25.904Z,95914.53
2022-09-20T09:01:54.609Z,95927.47
2022-09-20T09:04:24.309Z,95921.34
2022-09-20T09:06:53.699Z,95924.16
2022-09-20T09:09:24.339Z,95927.50
2022-09-20T09:11:55.089Z,95926.75
2022-09-20T09:14:44.441Z,95931.41
2022-09-20T09:17:13.582Z,95920.16
2022-09-20T09:19:47.318Z,95927.88
2022-09-20T09:22:22.161Z,95929.69
2022-09-20T09:25:24.099Z,95927.16
2022-09-20T09:27:58.344Z,95925.72
2022-09-20T09:30:28.943Z,95925.53
2022-09-20T09:33:18.815Z,95915.38
2022-09-20T09:35:54.136Z,95912.31
2022-09-20T09:38:24.774Z,95909.50
2022-09-20T09:40:54.834Z,95898.06
2022-09-20T09:43:29.106Z,95901.16
2022-09-20T09:45:57.950Z,95906.72
2022-09-20T09:48:28.077Z,95915.03
2022-09-20T09:51:10.103Z,95911.00
2022-09-20T09:53:39.048Z,95899.91
2022-09-20T09:56:21.939Z,95911.75
2022-09-20T09:59:12.444Z,95907.59
2022-09-20T10:01:49.355Z,95908.53
2022-09-20T10:04:23.243Z,95911.25
2022-09-20T10:07:00.300Z,95902.19
2022-09-20T10:09:44.774Z,95903.59
2022-09-20T10:12:28.226Z,95905.59
2022-09-20T10:15:08.083Z,95911.16
2022-09-20T10:17:52.812Z,95903.22
2022-09-20T10:20:39.191Z,95904.53
2022-09-20T10:23:51.561Z,95902.91
2022-09-20T10:26:26.144Z,95900.06
2022-09-20T10:29:03.082Z,95899.59
2022-09-20T10:31:45.901Z,95900.88
2022-09-20T10:34:29.677Z,95903.25
2022-09-20T10:36:59.471Z,95904.44
2022-09-20T10:39:32.353Z,95907.47
2022-09-20T10:42:26.396Z,95896.03
2022-09-20T10:45:08.804Z,95903.00
2022-09-20T10:47:51.045Z,95906.22
2022-09-20T10:50:26.109Z,95900.41
2022-09-20T10:53:10.709Z,95900.91
2022-09-20T10:55:46.468Z,95906.22
2022-09-20T10:58:45.267Z,95905.53
2022-09-20T11:01:22.099Z,95905.16
2022-09-20T11:04:15.751Z,95901.81
2022-09-20T11:06:51.923Z,95901.34
2022-09-20T11:09:24.372Z,95902.03
2022-09-20T11:11:57.280Z,95898.50
2022-09-20T11:14:32.608Z,95901.13
2022-09-20T11:17:08.448Z,95898.06
2022-09-20T11:19:48.477Z,95907.97
2022-09-20T11:22:22.030Z,95919.06
2022-09-20T11:24:56.072Z,95914.84
2022-09-20T11:27:29.597Z,95907.63
2022-09-20T11:30:03.081Z,95909.53
2022-09-20T11:32:36.948Z,95911.78
2022-09-20T11:35:22.814Z,95911.53
2022-09-20T11:37:58.588Z,95914.75
2022-09-20T11:40:29.662Z,95906.47
2022-09-20T11:43:00.672Z,95903.34
2022-09-20T11:45:30.789Z,95907.16
2022-09-20T11:48:05.225Z,95904.19
2022-09-20T11:51:05.366Z,95902.63
2022-09-20T11:53:45.639Z,95901.13
2022-09-20T11:56:18.927Z,95904.88
2022-09-20T11:58:49.052Z,95901.09
2022-09-20T12:01:28.273Z,95899.47
2022-09-20T12:04:20.568Z,95902.38
2022-09-20T12:06:48.915Z,95904.50
2022-09-20T12:09:26.502Z,95901.66
2022-09-20T12:11:54.700Z,95908.78
2022-09-20T12:14:27.366Z,95902.47
2022-09-20T12:16:56.934Z,95896.84
2022-09-20T12:19:38.917Z,95891.38
2022-09-20T12:22:29.655Z,95881.19
2022-09-20T12:25:34.520Z,95878.78
2022-09-20T12:28:02.739Z,95873.94
2022-09-20T12:30:32.329Z,95870.03
2022-09-20T12:33:01.122Z,95879.53
2022-09-20T12:36:02.811Z,95878.31
2022-09-20T12:38:38.956Z,95865.25
2022-09-20T12:41:14.001Z,95869.03
2022-09-20T12:44:01.866Z,95874.69
2022-09-20T12:46:43.483Z,95863.81
2022-09-20T12:50:00.461Z,95868.00
2022-09-20T12:52:57.450Z,95866.13
2022-09-20T12:55:41.221Z,95865.03
2022-09-20T12:58:27.463Z,95867.50
2022-09-20T13:01:30.801Z,95858.84
2022-09-20T13:04:32.277Z,95862.94
2022-09-20T13:07:33.148Z,95868.59
2022-09-20T13:10:06.939Z,95870.59
2022-09-20T13:12:42.371Z,95877.13
2022-09-20T13:15:19.616Z,95871.16
2022-09-20T13:17:51.979Z,95865.91
2022-09-20T13:20:23.546Z,95861.78
2022-09-20T13:22:57.048Z,95866.19
2022-09-20T13:25:28.505Z,95862.31
2022-09-20T13:28:06.690Z,95860.34
2022-09-20T13:30:35.193Z,95848.84
2022-09-20T13:33:23.029Z,95855.00
2022-09-20T13:35:54.372Z,95849.66
2022-09-20T13:38:24.853Z,95851.13
2022-09-20T13:40:55.084Z,95857.47
2022-09-20T13:43:29.183Z,95852.31
2022-09-20T13:45:58.522Z,95859.06
2022-09-20T13:48:27.725Z,95861.47
2022-09-20T13:50:56.435Z,95851.81
2022-09-20T13:53:40.642Z,95858.31
2022-09-20T13:56:12.439Z,95856.31
2022-09-20T13:58:41.902Z,95857.25
2022-09-20T14:01:23.588Z,95847.56
2022-09-20T14:03:51.246Z,95856.19
2022-09-20T14:06:18.874Z,95846.72
2022-09-20T14:08:49.622Z,95855.00
2022-09-20T14:11:19.767Z,95851.81
2022-09-20T14:13:51.813Z,95857.75
2022-09-20T14:16:21.890Z,95858.94
2022-09-20T14:18:50.537Z,95858.50
2022-09-20T14:21:22.809Z,95859.63
2022-09-20T14:23:52.249Z,95857.94
2022-09-20T14:26:25.691Z,95857.47
2022-09-20T14:28:55.074Z,95853.88
2022-09-20T14:31:25.609Z,95852.19
2022-09-20T14:33:56.165Z,95846.72
2022-09-20T14:36:25.518Z,95841.84
2022-09-20T14:38:56.437Z,95843.50
2022-09-20T14:41:31.047Z,95846.91
2022-09-20T14:44:02.596Z,95843.31
2022-09-20T14:46:33.851Z,95846.00
2022-09-20T14:49:22.002Z,95843.16
2022-09-20T14:51:49.983Z,95849.91
2022-09-20T14:54:27.924Z,95851.38
2022-09-20T14:56:57.594Z,95862.13
2022-09-20T14:59:28.071Z,95853.34
2022-09-20T15:02:02.035Z,95846.72
2022-09-20T15:04:31.639Z,95859.28
2022-09-20T15:07:02.960Z,95857.97
2022-09-20T15:09:30.978Z,95853.25
2022-09-20T15:12:06.448Z,95853.34
2022-09-20T15:14:37.708Z,95857.78
2022-09-20T15:17:06.480Z,95858.66
2022-09-20T15:19:34.372Z,95849.22
2022-09-20T15:22:05.150Z,95858.56
2022-09-20T15:24:32.829Z,95856.53
2022-09-20T15:27:00.410Z,95851.69
2022-09-20T15:29:28.167Z,95853.06
2022-09-20T15:31:57.736Z,95857.16
2022-09-20T15:34:25.357Z,95868.19
2022-09-20T15:36:54.116Z,95858.28
2022-09-20T15:39:22.262Z,95868.28
2022-09-20T15:41:53.051Z,95865.38
2022-09-20T15:44:20.661Z,95874.84
2022-09-20T15:46:48.932Z,95873.47
2022-09-20T15:49:17.956Z,95876.47
2022-09-20T15:51:46.283Z,95874.69
2022-09-20T15:54:15.500Z,95871.84
2022-09-20T15:56:43.451Z,95874.47
2022-09-20T15:59:14.591Z,95888.66
2022-09-20T16:01:43.767Z,95884.91
2022-09-20T16:04:13.424Z,95888.59
2022-09-20T16:06:44.489Z,95886.28
2022-09-20T16:09:12.068Z,95888.75
2022-09-20T16:11:40.391Z,95883.91
2022-09-20T16:14:08.158Z,95892.28
2022-09-20T16:16:40.135Z,95897.00
2022-09-20T16:19:20.808Z,95897.00
2022-09-20T16:21:57.589Z,95891.47
2022-09-20T16:24:28.025Z,95891.88
2022-09-20T16:26:55.890Z,95897.44
2022-09-20T16:29:25.064Z,95897.16
2022-09-20T16:31:54.658Z,95897.91
2022-09-20T16:34:29.562Z,95900.25
2022-09-20T16:37:00.436Z,95906.59
2022-09-20T16:39:29.556Z,95904.09
2022-09-20T16:41:59.012Z,95907.53
2022-09-20T16:44:26.644Z,95905.53
2022-09-20T16:46:54.274Z,95914.88
2022-09-20T16:49:22.023Z,95916.75
2022-09-20T16:51:49.633Z,95922.22
2022-09-20T16:54:19.572Z,95925.16
2022-09-20T16:56:49.125Z,95932.94
2022-09-20T16:59:18.508Z,95933.47
2022-09-20T17:04:43.600Z,95940.63
2022-09-20T17:07:11.592Z,95942.63
2022-09-20T17:09:43.556Z,95944.69
2022-09-20T17:12:11.410Z,95956.53
2022-09-20T17:14:48.710Z,95960.34
2022-09-20T17:17:17.012Z,95961.41
2022-09-20T17:19:44.759Z,95969.56
2022-09-20T17:22:13.464Z,95973.13
2022-09-20T17:24:42.658Z,95974.78
2022-09-20T17:27:10.796Z,95976.81
2022-09-20T17:29:38.438Z,95975.28
2022-09-20T17:32:06.374Z,95984.69
2022-09-20T17:34:34.067Z,95995.66
2022-09-20T17:37:03.368Z,95983.16
2022-09-20T17:39:31.235Z,95990.19
2022-09-20T17:42:01.382Z,95986.78
2022-09-20T17:44:29.083Z,96001.13
2022-09-20T17:46:56.784Z,95996.25
2022-09-20T17:49:26.725Z,95998.50
2022-09-20T17:51:56.032Z,96004.91
2022-09-20T17:54:24.851Z,96003.50
2022-09-20T17:56:55.719Z,96000.78
2022-09-20T17:59:25.632Z,96011.56
2022-09-20T18:01:54.298Z,96004.00
2022-09-20T18:04:24.219Z,96011.31
2022-09-20T18:06:53.187Z,96015.97
2022-09-20T18:09:22.526Z,96019.50
2022-09-20T18:11:51.668Z,96023.44
2022-09-20T18:14:21.098Z,96028.25
2022-09-20T18:16:52.479Z,96028.66
2022-09-20T18:19:22.596Z,96030.91
2022-09-20T18:21:50.600Z,96035.50
2022-09-20T18:24:18.408Z,96030.41
2022-09-20T18:26:46.192Z,96030.28
2022-09-20T18:29:17.383Z,96038.09
2022-09-20T18:31:50.662Z,96036.81
2022-09-20T18:34:20.017Z,96036.56
2022-09-20T18:36:53.032Z,96045.56
2022-09-20T18:39:24.862Z,96044.63
2022-09-20T18:41:53.460Z,96046.88
2022-09-20T18:44:22.106Z,96052.31
2022-09-20T18:46:55.037Z,96053.25
2022-09-20T18:49:25.410Z,96047.25
2022-09-20T18:51:53.017Z,96056.47
2022-09-20T18:54:20.675Z,96044.72
2022-09-20T18:56:50.094Z,96047.25
2022-09-20T18:59:19.577Z,96056.13
2022-09-20T19:02:21.854Z,96053.16
2022-09-20T19:05:13.957Z,96056.47
2022-09-20T19:07:54.696Z,96051.47
2022-09-20T19:10:27.877Z,96055.13
2022-09-20T19:13:04.697Z,96062.13
2022-09-20T19:15:52.322Z,96054.31
2022-09-20T19:18:36.486Z,96064.81
2022-09-20T19:21:17.911Z,96058.91
2022-09-20T19:24:01.106Z,96065.06
2022-09-20T19:26:37.961Z,96071.22
2022-09-20T19:29:16.707Z,96074.78
2022-09-20T19:31:44.858Z,96078.44
2022-09-20T19:34:19.717Z,96081.97
2022-09-20T19:36:58.473Z,96086.50
2022-09-20T19:39:37.987Z,96088.59
2022-09-20T19:42:16.456Z,96082.66
2022-09-20T19:44:53.823Z,96090.66
2022-09-20T19:47:30.784Z,96092.69
2022-09-20T19:50:05.187Z,96090.56
2022-09-20T19:52:33.285Z,96104.56
2022-09-20T19:55:01.831Z,96097.19
2022-09-20T19:57:36.065Z,96108.22
2022-09-20T20:00:09.282Z,96102.38
2022-09-20T20:02:39.782Z,96106.09
2022-09-20T20:05:12.610Z,96111.78
2022-09-20T20:07:47.286Z,96112.59
2022-09-20T20:10:23.486Z,96112.59
2022-09-20T20:12:56.583Z,96106.53
2022-09-20T20:15:38.846Z,96114.34
2022-09-20T20:18:16.802Z,96113.91
2022-09-20T20:20:49.624Z,96114.00
2022-09-20T20:23:45.635Z,96111.28
2022-09-20T20:26:20.180Z,96118.34
2022-09-20T20:28:48.003Z,96122.66
2022-09-20T20:31:16.337Z,96121.72
2022-09-20T20:33:45.555Z,96126.13
2022-09-20T20:36:14.550Z,96138.78
2022-09-20T20:38:49.399Z,96136.50
2022-09-20T20:41:19.335Z,96136.53
2022-09-20T20:43:48.358Z,96136.16
2022-09-20T20:46:19.514Z,96128.84
2022-09-20T20:48:48.472Z,96128.47
2022-09-20T20:51:19.048Z,96130.63
2022-09-20T20:53:48.847Z,96128.72
2022-09-20T20:56:19.010Z,96130.63
2022-09-20T20:58:47.751Z,96129.47
2022-09-20T21:01:17.732Z,96136.53
2022-09-20T21:03:48.589Z,96138.34
2022-09-20T21:06:18.131Z,96136.81
2022-09-20T21:08:49.567Z,96140.59
2022-09-20T21:11:20.434Z,96144.56
2022-09-20T21:13:48.890Z,96142.84
2022-09-20T21:16:18.297Z,96142.97
2022-09-20T21:18:48.451Z,96147.31
2022-09-20T21:21:19.657Z,96152.25
2022-09-20T21:23:51.327Z,96154.13
2022-09-20T21:26:19.783Z,96159.53
2022-09-20T21:28:52.039Z,96155.63
2022-09-20T21:31:21.632Z,96156.84
2022-09-20T21:33:49.349Z,96155.09
2022-09-20T21:36:19.773Z,96163.53
2022-09-20T21:38:47.555Z,96158.69
2022-09-20T21:41:17.695Z,96156.59
2022-09-20T21:43:46.862Z,96160.09
2022-09-20T21:46:16.317Z,96161.38
2022-09-20T21:48:44.179Z,96156.09
2022-09-20T21:51:13.761Z,96162.44
2022-09-20T21:53:43.084Z,96156.56
2022-09-20T21:56:13.549Z,96153.81
2022-09-20T21:58:41.628Z,96157.56
2022-09-20T22:01:11.843Z,96153.84
2022-09-20T22:03:40.927Z,96156.50
2022-09-20T22:06:10.711Z,96156.53
2022-09-20T22:08:39.382Z,96156.63
2022-09-20T22:11:13.430Z,96159.97
2022-09-20T22:13:43.452Z,96162.16
2022-09-20T22:16:12.841Z,96160.81
2022-09-20T22:18:42.406Z,96165.63
2022-09-20T22:21:12.843Z,96153.75
2022-09-20T22:23:40.881Z,96168.84
2022-09-20T22:26:11.893Z,96168.78
2022-09-20T22:28:39.903Z,96161.31
2022-09-20T22:31:09.522Z,96161.94
2022-09-20T22:33:42.609Z,96158.03
2022-09-20T22:36:12.515Z,96148.13
2022-09-20T22:38:40.290Z,96155.72
2022-09-20T22:41:11.795Z,96154.34
2022-09-20T22:43:39.887Z,96148.09
2022-09-20T22:46:09.187Z,96149.63
2022-09-20T22:48:37.425Z,96143.84
2022-09-20T22:51:07.179Z,96151.19
2022-09-20T22:53:35.821Z,96148.94
2022-09-20T22:56:05.971Z,96148.63
2022-09-20T22:58:36.185Z,96153.47
2022-09-20T23:01:06.260Z,96155.22
2022-09-20T23:03:34.049Z,96145.47
2022-09-20T23:06:02.931Z,96146.91
2022-09-20T23:08:33.572Z,96149.53
2022-09-20T23:11:05.814Z,96145.50
2022-09-20T23:13:34.965Z,96147.13
2022-09-20T23:16:11.943Z,96138.72
2022-09-20T23:18:40.058Z,96145.59
2022-09-20T23:21:08.205Z,96145.41
2022-09-20T23:23:36.581Z,96140.63
2022-09-20T23:26:09.186Z,96138.13
2022-09-20T23:28:41.291Z,96141.97
2022-09-20T23:31:11.223Z,96150.50
2022-09-20T23:33:41.515Z,96150.94
2022-09-20T23:36:11.568Z,96144.09
2022-09-20T23:38:39.341Z,96143.97
2022-09-20T23:41:08.551Z,96143.53
2022-09-20T23:43:38.239Z,96149.03
2022-09-20T23:46:08.339Z,96146.75
2022-09-20T23:48:37.044Z,96148.22
2022-09-20T23:51:05.575Z,96144.31
2022-09-20T23:53:33.889Z,96152.09
2022-09-20T23:56:01.897Z,96152.41
2022-09-20T23:58:29.563Z,96154.88
